sensor_id;sensor_type;location;lat;lon;timestamp;pressure;altitude;pressure_sealevel;temperature;humidity
56038;BME280;41907;47.848;9.000;2023-06-22T00:00:49;95737.00;;;19.55;100.00
56038;BME280;41907;47.848;9.000;2023-06-22T00:03:15;95730.81;;;19.54;100.00
56038;BME280;41907;47.848;9.000;2023-06-22T00:05:40;95735.09;;;19.55;100.00
56038;BME280;41907;47.848;9.000;2023-06-22T00:08:06;95725.41;;;19.54;100.00
56038;BME280;41907;47.848;9.000;2023-06-22T00:10:31;95735.88;;;19.56;100.00
56038;BME280;41907;47.848;9.000;2023-06-22T00:12:56;95723.84;;;19.53;100.00
56038;BME280;41907;47.848;9.000;2023-06-22T00:15:22;95730.81;;;19.54;100.00
56038;BME280;41907;47.848;9.000;2023-06-22T00:17:47;95729.88;;;19.43;100.00
56038;BME280;41907;47.848;9.000;2023-06-22T00:20:12;95730.69;;;19.47;100.00
56038;BME280;41907;47.848;9.000;2023-06-22T00:22:39;95737.69;;;19.48;100.00
56038;BME280;41907;47.848;9.000;2023-06-22T00:25:08;95731.84;;;19.46;100.00
56038;BME280;41907;47.848;9.000;2023-06-22T00:27:33;95725.97;;;19.41;100.00
56038;BME280;41907;47.848;9.000;2023-06-22T00:29:59;95722.13;;;19.42;100.00
56038;BME280;41907;47.848;9.000;2023-06-22T00:32:24;95717.06;;;19.40;100.00
56038;BME280;41907;47.848;9.000;2023-06-22T00:34:49;95724.81;;;19.42;100.00
56038;BME280;41907;47.848;9.000;2023-06-22T00:37:15;95716.22;;;19.36;100.00
56038;BME280;41907;47.848;9.000;2023-06-22T00:39:41;95722.47;;;19.40;100.00
56038;BME280;41907;47.848;9.000;2023-06-22T00:42:06;95714.00;;;19.42;100.00
56038;BME280;41907;47.848;9.000;2023-06-22T00:44:31;95708.53;;;19.38;100.00
56038;BME280;41907;47.848;9.000;2023-06-22T00:46:56;95717.78;;;19.37;100.00
56038;BME280;41907;47.848;9.000;2023-06-22T00:49:22;95718.94;;;19.36;100.00
56038;BME280;41907;47.848;9.000;2023-06-22T00:51:47;95720.91;;;19.39;100.00
56038;BME280;41907;47.848;9.000;2023-06-22T00:54:12;95720.50;;;19.37;100.00
56038;BME280;41907;47.848;9.000;2023-06-22T00:56:39;95722.00;;;19.34;100.00
56038;BME280;41907;47.848;9.000;2023-06-22T00:59:04;95718.91;;;19.32;100.00
56038;BME280;41907;47.848;9.000;2023-06-22T01:01:30;95720.81;;;19.32;100.00
56038;BME280;41907;47.848;9.000;2023-06-22T01:03:55;95713.47;;;19.32;100.00
56038;BME280;41907;47.848;9.000;2023-06-22T01:06:25;95711.59;;;19.37;100.00
56038;BME280;41907;47.848;9.000;2023-06-22T01:08:53;95716.97;;;19.33;100.00
56038;BME280;41907;47.848;9.000;2023-06-22T01:13:52;95719.97;;;19.28;100.00
56038;BME280;41907;47.848;9.000;2023-06-22T01:16:21;95720.56;;;19.41;100.00
56038;BME280;41907;47.848;9.000;2023-06-22T01:18:47;95716.97;;;19.33;100.00
56038;BME280;41907;47.848;9.000;2023-06-22T01:21:16;95717.69;;;19.30;100.00
56038;BME280;41907;47.848;9.000;2023-06-22T01:23:51;95716.53;;;19.31;100.00
56038;BME280;41907;47.848;9.000;2023-06-22T01:26:21;95721.88;;;19.27;100.00
56038;BME280;41907;47.848;9.000;2023-06-22T01:28:50;95714.91;;;19.26;100.00
56038;BME280;41907;47.848;9.000;2023-06-22T01:31:18;95722.31;;;19.29;100.00
56038;BME280;41907;47.848;9.000;2023-06-22T01:33:47;95716.84;;;19.26;100.00
56038;BME280;41907;47.848;9.000;2023-06-22T01:36:13;95730.00;;;19.27;100.00
56038;BME280;41907;47.848;9.000;2023-06-22T01:38:39;95717.22;;;19.24;100.00
56038;BME280;41907;47.848;9.000;2023-06-22T01:41:04;95733.84;;;19.26;100.00
56038;BME280;41907;47.848;9.000;2023-06-22T01:43:30;95731.22;;;19.30;100.00
56038;BME280;41907;47.848;9.000;2023-06-22T01:45:57;95738.47;;;19.26;100.00
56038;BME280;41907;47.848;9.000;2023-06-22T01:48:23;95735.31;;;19.20;100.00
56038;BME280;41907;47.848;9.000;2023-06-22T01:50:48;95739.66;;;19.25;100.00
56038;BME280;41907;47.848;9.000;2023-06-22T01:53:14;95737.28;;;19.23;100.00
56038;BME280;41907;47.848;9.000;2023-06-22T01:55:39;95743.06;;;19.22;100.00
56038;BME280;41907;47.848;9.000;2023-06-22T01:58:04;95743.09;;;19.25;100.00
56038;BME280;41907;47.848;9.000;2023-06-22T02:00:31;95747.19;;;19.16;100.00
56038;BME280;41907;47.848;9.000;2023-06-22T02:03:02;95753.88;;;19.22;100.00
56038;BME280;41907;47.848;9.000;2023-06-22T02:05:31;95754.22;;;19.20;100.00
56038;BME280;41907;47.848;9.000;2023-06-22T02:08:11;95756.94;;;19.20;100.00
56038;BME280;41907;47.848;9.000;2023-06-22T02:10:40;95763.19;;;19.24;100.00
56038;BME280;41907;47.848;9.000;2023-06-22T02:13:07;95754.34;;;19.27;100.00
56038;BME280;41907;47.848;9.000;2023-06-22T02:15:33;95758.59;;;19.28;100.00
56038;BME280;41907;47.848;9.000;2023-06-22T02:17:59;95757.78;;;19.24;100.00
56038;BME280;41907;47.848;9.000;2023-06-22T02:20:24;95769.31;;;19.21;100.00
56038;BME280;41907;47.848;9.000;2023-06-22T02:22:50;95764.19;;;19.16;100.00
56038;BME280;41907;47.848;9.000;2023-06-22T02:25:15;95761.13;;;19.18;100.00
56038;BME280;41907;47.848;9.000;2023-06-22T02:27:40;95761.13;;;19.18;100.00
56038;BME280;41907;47.848;9.000;2023-06-22T02:30:09;95752.91;;;19.11;100.00
56038;BME280;41907;47.848;9.000;2023-06-22T02:32:34;95751.72;;;19.08;100.00
56038;BME280;41907;47.848;9.000;2023-06-22T02:35:00;95752.44;;;19.05;100.00
56038;BME280;41907;47.848;9.000;2023-06-22T02:37:29;95755.63;;;19.11;100.00
56038;BME280;41907;47.848;9.000;2023-06-22T02:39:54;95763.38;;;19.12;100.00
56038;BME280;41907;47.848;9.000;2023-06-22T02:42:19;95766.06;;;19.12;100.00
56038;BME280;41907;47.848;9.000;2023-06-22T02:44:46;95770.28;;;19.10;100.00
56038;BME280;41907;47.848;9.000;2023-06-22T02:47:11;95769.03;;;19.04;100.00
56038;BME280;41907;47.848;9.000;2023-06-22T02:49:37;95763.53;;;19.00;100.00
56038;BME280;41907;47.848;9.000;2023-06-22T02:52:02;95762.41;;;19.01;100.00
56038;BME280;41907;47.848;9.000;2023-06-22T02:54:27;95761.97;;;18.99;100.00
56038;BME280;41907;47.848;9.000;2023-06-22T02:56:52;95767.69;;;18.94;100.00
56038;BME280;41907;47.848;9.000;2023-06-22T02:59:18;95762.66;;;18.92;100.00
56038;BME280;41907;47.848;9.000;2023-06-22T03:01:48;95759.53;;;18.90;100.00
56038;BME280;41907;47.848;9.000;2023-06-22T03:04:14;95752.56;;;18.89;100.00
56038;BME280;41907;47.848;9.000;2023-06-22T03:06:40;95749.56;;;18.94;100.00
56038;BME280;41907;47.848;9.000;2023-06-22T03:09:05;95743.63;;;18.85;100.00
56038;BME280;41907;47.848;9.000;2023-06-22T03:11:31;95752.13;;;18.87;100.00
56038;BME280;41907;47.848;9.000;2023-06-22T03:13:56;95752.97;;;18.91;100.00
56038;BME280;41907;47.848;9.000;2023-06-22T03:16:22;95746.34;;;18.89;100.00
56038;BME280;41907;47.848;9.000;2023-06-22T03:18:47;95742.88;;;18.88;100.00
56038;BME280;41907;47.848;9.000;2023-06-22T03:21:12;95739.38;;;18.88;100.00
56038;BME280;41907;47.848;9.000;2023-06-22T03:23:40;95733.22;;;18.87;100.00
56038;BME280;41907;47.848;9.000;2023-06-22T03:26:05;95740.91;;;18.85;100.00
56038;BME280;41907;47.848;9.000;2023-06-22T03:28:30;95748.72;;;18.90;100.00
56038;BME280;41907;47.848;9.000;2023-06-22T03:30:58;95766.97;;;18.97;100.00
56038;BME280;41907;47.848;9.000;2023-06-22T03:33:24;95760.84;;;19.00;100.00
56038;BME280;41907;47.848;9.000;2023-06-22T03:35:49;95761.19;;;18.99;100.00
56038;BME280;41907;47.848;9.000;2023-06-22T03:38:15;95757.31;;;18.96;100.00
56038;BME280;41907;47.848;9.000;2023-06-22T03:40:40;95762.75;;;19.00;100.00
56038;BME280;41907;47.848;9.000;2023-06-22T03:43:05;95763.31;;;19.09;100.00
56038;BME280;41907;47.848;9.000;2023-06-22T03:45:30;95760.13;;;19.03;100.00
56038;BME280;41907;47.848;9.000;2023-06-22T03:47:56;95759.00;;;19.04;100.00
56038;BME280;41907;47.848;9.000;2023-06-22T03:50:21;95764.44;;;19.08;100.00
56038;BME280;41907;47.848;9.000;2023-06-22T03:52:47;95760.56;;;19.05;100.00
56038;BME280;41907;47.848;9.000;2023-06-22T03:55:12;95753.88;;;18.99;100.00
56038;BME280;41907;47.848;9.000;2023-06-22T03:57:37;95741.56;;;19.02;100.00
56038;BME280;41907;47.848;9.000;2023-06-22T04:00:02;95747.50;;;19.11;100.00
56038;BME280;41907;47.848;9.000;2023-06-22T04:02:30;95748.03;;;19.20;100.00
56038;BME280;41907;47.848;9.000;2023-06-22T04:04:56;95748.34;;;19.15;100.00
56038;BME280;41907;47.848;9.000;2023-06-22T04:07:21;95744.88;;;19.14;100.00
56038;BME280;41907;47.848;9.000;2023-06-22T04:09:46;95740.47;;;19.29;100.00
56038;BME280;41907;47.848;9.000;2023-06-22T04:12:11;95744.13;;;19.40;100.00
56038;BME280;41907;47.848;9.000;2023-06-22T04:14:37;95740.72;;;19.47;100.00
56038;BME280;41907;47.848;9.000;2023-06-22T04:17:02;95739.94;;;19.46;100.00
56038;BME280;41907;47.848;9.000;2023-06-22T04:19:27;95746.03;;;19.62;100.00
56038;BME280;41907;47.848;9.000;2023-06-22T04:21:52;95748.44;;;19.97;100.00
56038;BME280;41907;47.848;9.000;2023-06-22T04:24:18;95741.69;;;20.44;100.00
56038;BME280;41907;47.848;9.000;2023-06-22T04:26:43;95734.78;;;20.91;100.00
56038;BME280;41907;47.848;9.000;2023-06-22T04:29:10;95721.75;;;21.07;100.00
56038;BME280;41907;47.848;9.000;2023-06-22T04:31:35;95730.22;;;21.46;100.00
56038;BME280;41907;47.848;9.000;2023-06-22T04:34:02;95733.88;;;21.71;100.00
56038;BME280;41907;47.848;9.000;2023-06-22T04:36:32;95741.94;;;22.22;100.00
56038;BME280;41907;47.848;9.000;2023-06-22T04:39:02;95736.09;;;22.20;100.00
56038;BME280;41907;47.848;9.000;2023-06-22T04:41:27;95733.09;;;22.36;98.97
56038;BME280;41907;47.848;9.000;2023-06-22T04:43:53;95746.34;;;22.66;97.46
56038;BME280;41907;47.848;9.000;2023-06-22T04:46:19;95735.09;;;22.60;96.79
56038;BME280;41907;47.848;9.000;2023-06-22T04:48:44;95726.63;;;22.83;95.93
56038;BME280;41907;47.848;9.000;2023-06-22T04:51:09;95739.47;;;23.00;94.60
56038;BME280;41907;47.848;9.000;2023-06-22T04:53:35;95746.47;;;23.09;93.30
56038;BME280;41907;47.848;9.000;2023-06-22T04:56:00;95739.47;;;23.25;91.79
56038;BME280;41907;47.848;9.000;2023-06-22T04:58:26;95760.06;;;23.44;91.21
56038;BME280;41907;47.848;9.000;2023-06-22T05:00:53;95751.06;;;24.00;88.31
56038;BME280;41907;47.848;9.000;2023-06-22T05:03:21;95734.38;;;23.91;86.63
56038;BME280;41907;47.848;9.000;2023-06-22T05:05:47;95731.50;;;24.37;86.39
56038;BME280;41907;47.848;9.000;2023-06-22T05:08:13;95755.63;;;25.19;81.61
56038;BME280;41907;47.848;9.000;2023-06-22T05:10:38;95740.19;;;25.46;78.01
56038;BME280;41907;47.848;9.000;2023-06-22T05:13:03;95706.66;;;25.42;77.87
56038;BME280;41907;47.848;9.000;2023-06-22T05:15:29;95725.47;;;25.33;79.18
56038;BME280;41907;47.848;9.000;2023-06-22T05:17:55;95753.53;;;26.19;75.28
56038;BME280;41907;47.848;9.000;2023-06-22T05:20:21;95747.03;;;26.74;71.47
56038;BME280;41907;47.848;9.000;2023-06-22T05:22:46;95723.31;;;26.00;72.89
56038;BME280;41907;47.848;9.000;2023-06-22T05:25:12;95732.31;;;25.55;75.79
56038;BME280;41907;47.848;9.000;2023-06-22T05:27:37;95743.59;;;25.57;76.52
56038;BME280;41907;47.848;9.000;2023-06-22T05:30:05;95714.75;;;24.39;80.70
56038;BME280;41907;47.848;9.000;2023-06-22T05:32:30;95721.00;;;24.36;83.64
56038;BME280;41907;47.848;9.000;2023-06-22T05:34:55;95735.78;;;24.42;81.62
56038;BME280;41907;47.848;9.000;2023-06-22T05:37:21;95731.59;;;24.96;79.61
56038;BME280;41907;47.848;9.000;2023-06-22T05:39:46;95724.00;;;24.63;81.68
56038;BME280;41907;47.848;9.000;2023-06-22T05:42:11;95723.75;;;25.05;81.00
56038;BME280;41907;47.848;9.000;2023-06-22T05:44:37;95732.59;;;25.20;78.14
56038;BME280;41907;47.848;9.000;2023-06-22T05:47:04;95729.19;;;25.09;78.18
56038;BME280;41907;47.848;9.000;2023-06-22T05:49:29;95716.31;;;25.09;79.33
56038;BME280;41907;47.848;9.000;2023-06-22T05:51:57;95726.25;;;25.34;79.69
56038;BME280;41907;47.848;9.000;2023-06-22T05:54:22;95737.88;;;25.45;77.92
56038;BME280;41907;47.848;9.000;2023-06-22T05:56:48;95736.09;;;25.20;76.80
56038;BME280;41907;47.848;9.000;2023-06-22T05:59:13;95720.06;;;24.67;79.86
56038;BME280;41907;47.848;9.000;2023-06-22T06:01:38;95715.25;;;24.89;79.86
56038;BME280;41907;47.848;9.000;2023-06-22T06:04:04;95725.69;;;25.08;80.97
56038;BME280;41907;47.848;9.000;2023-06-22T06:06:30;95730.91;;;25.37;77.51
56038;BME280;41907;47.848;9.000;2023-06-22T06:08:55;95730.78;;;25.03;79.33
56038;BME280;41907;47.848;9.000;2023-06-22T06:11:21;95724.59;;;24.95;78.96
56038;BME280;41907;47.848;9.000;2023-06-22T06:13:46;95723.59;;;25.23;78.38
56038;BME280;41907;47.848;9.000;2023-06-22T06:16:12;95726.44;;;25.61;77.13
56038;BME280;41907;47.848;9.000;2023-06-22T06:18:37;95725.75;;;25.90;77.36
56038;BME280;41907;47.848;9.000;2023-06-22T06:21:03;95726.50;;;26.25;74.55
56038;BME280;41907;47.848;9.000;2023-06-22T06:23:28;95734.97;;;26.04;73.93
56038;BME280;41907;47.848;9.000;2023-06-22T06:25:53;95727.47;;;25.74;74.38
56038;BME280;41907;47.848;9.000;2023-06-22T06:28:19;95723.16;;;25.76;74.83
56038;BME280;41907;47.848;9.000;2023-06-22T06:30:44;95726.47;;;25.53;77.55
56038;BME280;41907;47.848;9.000;2023-06-22T06:33:09;95725.69;;;25.53;77.01
56038;BME280;41907;47.848;9.000;2023-06-22T06:35:34;95719.41;;;25.60;75.96
56038;BME280;41907;47.848;9.000;2023-06-22T06:38:00;95729.28;;;25.46;77.01
56038;BME280;41907;47.848;9.000;2023-06-22T06:40:25;95728.44;;;25.49;77.82
56038;BME280;41907;47.848;9.000;2023-06-22T06:42:50;95729.38;;;25.77;75.14
56038;BME280;41907;47.848;9.000;2023-06-22T06:45:17;95735.81;;;25.97;76.43
56038;BME280;41907;47.848;9.000;2023-06-22T06:47:43;95737.13;;;26.19;73.71
56038;BME280;41907;47.848;9.000;2023-06-22T06:50:08;95737.41;;;26.32;72.13
56038;BME280;41907;47.848;9.000;2023-06-22T06:52:34;95746.47;;;26.86;71.35
56038;BME280;41907;47.848;9.000;2023-06-22T06:55:00;95746.41;;;26.93;68.94
56038;BME280;41907;47.848;9.000;2023-06-22T06:57:25;95748.06;;;27.14;69.62
56038;BME280;41907;47.848;9.000;2023-06-22T06:59:55;95745.00;;;27.09;69.78
56038;BME280;41907;47.848;9.000;2023-06-22T07:02:21;95749.59;;;27.65;68.70
56038;BME280;41907;47.848;9.000;2023-06-22T07:04:46;95748.88;;;28.04;67.25
56038;BME280;41907;47.848;9.000;2023-06-22T07:07:12;95751.25;;;28.26;66.15
56038;BME280;41907;47.848;9.000;2023-06-22T07:09:37;95741.59;;;27.51;67.61
56038;BME280;41907;47.848;9.000;2023-06-22T07:12:02;95738.38;;;27.80;67.41
56038;BME280;41907;47.848;9.000;2023-06-22T07:14:27;95738.59;;;28.12;65.78
56038;BME280;41907;47.848;9.000;2023-06-22T07:16:53;95734.94;;;28.58;63.85
56038;BME280;41907;47.848;9.000;2023-06-22T07:19:24;95738.75;;;27.58;66.49
56038;BME280;41907;47.848;9.000;2023-06-22T07:21:49;95732.72;;;27.90;66.48
56038;BME280;41907;47.848;9.000;2023-06-22T07:24:14;95730.81;;;27.87;66.23
56038;BME280;41907;47.848;9.000;2023-06-22T07:26:39;95728.34;;;27.46;67.40
56038;BME280;41907;47.848;9.000;2023-06-22T07:29:10;95723.13;;;27.32;67.14
56038;BME280;41907;47.848;9.000;2023-06-22T07:31:35;95722.63;;;26.87;69.84
56038;BME280;41907;47.848;9.000;2023-06-22T07:34:01;95715.22;;;26.84;70.19
56038;BME280;41907;47.848;9.000;2023-06-22T07:36:27;95709.22;;;26.96;70.59
56038;BME280;41907;47.848;9.000;2023-06-22T07:38:55;95709.47;;;27.28;68.57
56038;BME280;41907;47.848;9.000;2023-06-22T07:41:20;95712.53;;;27.34;69.23
56038;BME280;41907;47.848;9.000;2023-06-22T07:43:45;95710.41;;;27.68;67.94
56038;BME280;41907;47.848;9.000;2023-06-22T07:46:10;95717.63;;;28.02;65.84
56038;BME280;41907;47.848;9.000;2023-06-22T07:48:36;95712.22;;;28.38;65.46
56038;BME280;41907;47.848;9.000;2023-06-22T07:51:02;95713.22;;;28.47;63.71
56038;BME280;41907;47.848;9.000;2023-06-22T07:53:27;95718.72;;;28.64;63.85
56038;BME280;41907;47.848;9.000;2023-06-22T07:55:53;95717.03;;;28.70;62.03
56038;BME280;41907;47.848;9.000;2023-06-22T07:58:18;95739.63;;;29.30;62.59
56038;BME280;41907;47.848;9.000;2023-06-22T08:00:45;95760.81;;;29.29;61.70
56038;BME280;41907;47.848;9.000;2023-06-22T08:03:10;95788.25;;;29.49;64.48
56038;BME280;41907;47.848;9.000;2023-06-22T08:05:36;95805.91;;;29.15;62.71
56038;BME280;41907;47.848;9.000;2023-06-22T08:08:01;95831.41;;;28.96;64.86
56038;BME280;41907;47.848;9.000;2023-06-22T08:10:26;95856.63;;;28.28;66.66
56038;BME280;41907;47.848;9.000;2023-06-22T08:12:51;95856.53;;;27.85;69.25
56038;BME280;41907;47.848;9.000;2023-06-22T08:15:17;95834.25;;;27.60;71.17
56038;BME280;41907;47.848;9.000;2023-06-22T08:17:43;95829.03;;;27.38;71.84
56038;BME280;41907;47.848;9.000;2023-06-22T08:20:09;95814.81;;;26.93;72.66
56038;BME280;41907;47.848;9.000;2023-06-22T08:22:37;95829.66;;;26.96;73.41
56038;BME280;41907;47.848;9.000;2023-06-22T08:25:03;95826.44;;;27.01;72.82
56038;BME280;41907;47.848;9.000;2023-06-22T08:27:29;95831.34;;;27.17;72.22
56038;BME280;41907;47.848;9.000;2023-06-22T08:29:56;95834.91;;;27.67;72.50
56038;BME280;41907;47.848;9.000;2023-06-22T08:32:23;95816.13;;;28.36;70.07
56038;BME280;41907;47.848;9.000;2023-06-22T08:34:49;95816.69;;;29.06;67.96
56038;BME280;41907;47.848;9.000;2023-06-22T08:37:14;95817.63;;;29.52;66.42
56038;BME280;41907;47.848;9.000;2023-06-22T08:39:39;95823.44;;;29.38;63.00
56038;BME280;41907;47.848;9.000;2023-06-22T08:42:05;95834.81;;;30.05;65.60
56038;BME280;41907;47.848;9.000;2023-06-22T08:44:30;95835.25;;;30.48;61.15
56038;BME280;41907;47.848;9.000;2023-06-22T08:46:57;95819.06;;;30.50;60.46
56038;BME280;41907;47.848;9.000;2023-06-22T08:49:22;95815.97;;;30.48;59.89
56038;BME280;41907;47.848;9.000;2023-06-22T08:51:47;95819.44;;;30.52;58.66
56038;BME280;41907;47.848;9.000;2023-06-22T08:54:14;95811.84;;;30.27;59.34
56038;BME280;41907;47.848;9.000;2023-06-22T08:56:39;95805.94;;;30.13;59.33
56038;BME280;41907;47.848;9.000;2023-06-22T08:59:05;95803.22;;;29.80;61.55
56038;BME280;41907;47.848;9.000;2023-06-22T09:01:32;95783.34;;;29.73;61.23
56038;BME280;41907;47.848;9.000;2023-06-22T09:03:58;95773.84;;;29.61;61.11
56038;BME280;41907;47.848;9.000;2023-06-22T09:06:24;95789.22;;;29.42;61.40
56038;BME280;41907;47.848;9.000;2023-06-22T09:08:50;95782.38;;;29.31;63.11
56038;BME280;41907;47.848;9.000;2023-06-22T09:11:18;95783.88;;;29.51;64.99
56038;BME280;41907;47.848;9.000;2023-06-22T09:13:55;95780.94;;;29.75;61.25
56038;BME280;41907;47.848;9.000;2023-06-22T09:16:20;95766.13;;;28.48;65.16
56038;BME280;41907;47.848;9.000;2023-06-22T09:18:48;95763.63;;;28.93;65.44
56038;BME280;41907;47.848;9.000;2023-06-22T09:21:14;95757.00;;;29.07;63.05
56038;BME280;41907;47.848;9.000;2023-06-22T09:23:39;95761.38;;;29.40;63.73
56038;BME280;41907;47.848;9.000;2023-06-22T09:26:04;95754.09;;;27.99;65.31
56038;BME280;41907;47.848;9.000;2023-06-22T09:28:30;95746.16;;;27.61;68.32
56038;BME280;41907;47.848;9.000;2023-06-22T09:30:55;95742.66;;;28.63;65.51
56038;BME280;41907;47.848;9.000;2023-06-22T09:33:23;95752.09;;;28.82;65.81
56038;BME280;41907;47.848;9.000;2023-06-22T09:35:48;95751.63;;;29.03;61.65
56038;BME280;41907;47.848;9.000;2023-06-22T09:38:14;95754.53;;;28.76;63.72
56038;BME280;41907;47.848;9.000;2023-06-22T09:40:39;95743.63;;;28.73;66.45
56038;BME280;41907;47.848;9.000;2023-06-22T09:43:05;95737.78;;;29.43;66.28
56038;BME280;41907;47.848;9.000;2023-06-22T09:45:30;95723.50;;;29.93;62.55
56038;BME280;41907;47.848;9.000;2023-06-22T09:47:55;95726.25;;;30.51;60.75
56038;BME280;41907;47.848;9.000;2023-06-22T09:50:20;95726.78;;;30.04;61.66
56038;BME280;41907;47.848;9.000;2023-06-22T09:52:46;95727.50;;;29.11;64.97
56038;BME280;41907;47.848;9.000;2023-06-22T09:55:15;95728.88;;;29.35;64.97
56038;BME280;41907;47.848;9.000;2023-06-22T09:57:41;95743.13;;;29.95;64.15
56038;BME280;41907;47.848;9.000;2023-06-22T10:00:06;95747.28;;;30.45;63.26
56038;BME280;41907;47.848;9.000;2023-06-22T10:02:34;95738.00;;;29.81;61.55
56038;BME280;41907;47.848;9.000;2023-06-22T10:04:59;95734.31;;;29.22;60.69
56038;BME280;41907;47.848;9.000;2023-06-22T10:07:24;95725.94;;;30.07;60.74
56038;BME280;41907;47.848;9.000;2023-06-22T10:09:49;95729.19;;;30.73;56.97
56038;BME280;41907;47.848;9.000;2023-06-22T10:12:15;95735.84;;;30.46;57.19
56038;BME280;41907;47.848;9.000;2023-06-22T10:14:40;95733.72;;;30.66;56.83
56038;BME280;41907;47.848;9.000;2023-06-22T10:17:05;95728.69;;;31.03;59.59
56038;BME280;41907;47.848;9.000;2023-06-22T10:19:32;95726.38;;;29.73;60.29
56038;BME280;41907;47.848;9.000;2023-06-22T10:21:57;95720.72;;;30.25;59.47
56038;BME280;41907;47.848;9.000;2023-06-22T10:24:22;95730.72;;;30.61;57.28
56038;BME280;41907;47.848;9.000;2023-06-22T10:26:47;95724.44;;;30.60;59.45
56038;BME280;41907;47.848;9.000;2023-06-22T10:29:13;95721.81;;;30.28;57.53
56038;BME280;41907;47.848;9.000;2023-06-22T10:31:38;95719.22;;;30.08;57.76
56038;BME280;41907;47.848;9.000;2023-06-22T10:34:03;95719.50;;;29.98;58.76
56038;BME280;41907;47.848;9.000;2023-06-22T10:36:28;95708.50;;;30.26;59.20
56038;BME280;41907;47.848;9.000;2023-06-22T10:38:54;95702.22;;;30.80;57.88
56038;BME280;41907;47.848;9.000;2023-06-22T10:41:20;95698.94;;;31.23;57.19
56038;BME280;41907;47.848;9.000;2023-06-22T10:43:45;95688.91;;;31.17;55.08
56038;BME280;41907;47.848;9.000;2023-06-22T10:46:11;95693.31;;;31.01;55.45
56038;BME280;41907;47.848;9.000;2023-06-22T10:48:36;95689.91;;;31.10;56.49
56038;BME280;41907;47.848;9.000;2023-06-22T10:51:01;95707.50;;;31.00;53.81
56038;BME280;41907;47.848;9.000;2023-06-22T10:53:26;95704.56;;;30.40;59.28
56038;BME280;41907;47.848;9.000;2023-06-22T10:55:52;95705.38;;;30.53;58.26
56038;BME280;41907;47.848;9.000;2023-06-22T10:58:18;95697.28;;;30.33;59.82
56038;BME280;41907;47.848;9.000;2023-06-22T11:00:44;95699.28;;;30.04;62.95
56038;BME280;41907;47.848;9.000;2023-06-22T11:03:09;95701.03;;;29.98;61.30
56038;BME280;41907;47.848;9.000;2023-06-22T11:05:34;95698.84;;;30.06;61.29
56038;BME280;41907;47.848;9.000;2023-06-22T11:08:00;95695.44;;;29.85;59.60
56038;BME280;41907;47.848;9.000;2023-06-22T11:10:25;95692.06;;;29.49;59.87
56038;BME280;41907;47.848;9.000;2023-06-22T11:12:51;95693.44;;;29.24;61.31
56038;BME280;41907;47.848;9.000;2023-06-22T11:15:18;95697.44;;;28.51;65.12
56038;BME280;41907;47.848;9.000;2023-06-22T11:17:43;95695.66;;;28.61;66.87
56038;BME280;41907;47.848;9.000;2023-06-22T11:20:08;95705.31;;;29.38;63.93
56038;BME280;41907;47.848;9.000;2023-06-22T11:22:39;95697.81;;;29.06;62.20
56038;BME280;41907;47.848;9.000;2023-06-22T11:25:05;95696.81;;;29.16;64.06
56038;BME280;41907;47.848;9.000;2023-06-22T11:27:30;95703.06;;;29.33;61.77
56038;BME280;41907;47.848;9.000;2023-06-22T11:29:56;95710.91;;;28.62;64.95
56038;BME280;41907;47.848;9.000;2023-06-22T11:32:21;95705.78;;;28.64;64.43
56038;BME280;41907;47.848;9.000;2023-06-22T11:34:46;95708.81;;;29.38;66.96
56038;BME280;41907;47.848;9.000;2023-06-22T11:37:12;95711.69;;;29.96;64.90
56038;BME280;41907;47.848;9.000;2023-06-22T11:39:37;95717.22;;;30.38;62.54
56038;BME280;41907;47.848;9.000;2023-06-22T11:42:02;95708.69;;;30.61;60.03
56038;BME280;41907;47.848;9.000;2023-06-22T11:44:28;95720.44;;;30.07;61.26
56038;BME280;41907;47.848;9.000;2023-06-22T11:46:53;95714.28;;;30.16;63.76
56038;BME280;41907;47.848;9.000;2023-06-22T11:49:18;95716.53;;;30.33;60.21
56038;BME280;41907;47.848;9.000;2023-06-22T11:51:43;95714.59;;;30.05;61.56
56038;BME280;41907;47.848;9.000;2023-06-22T11:54:09;95718.53;;;30.33;61.70
56038;BME280;41907;47.848;9.000;2023-06-22T11:56:34;95718.19;;;30.31;60.63
56038;BME280;41907;47.848;9.000;2023-06-22T11:58:59;95720.75;;;30.38;60.85
56038;BME280;41907;47.848;9.000;2023-06-22T12:01:24;95723.16;;;30.36;61.25
56038;BME280;41907;47.848;9.000;2023-06-22T12:03:50;95720.16;;;30.30;61.92
56038;BME280;41907;47.848;9.000;2023-06-22T12:06:16;95719.72;;;30.32;60.68
56038;BME280;41907;47.848;9.000;2023-06-22T12:08:41;95724.66;;;30.24;61.99
56038;BME280;41907;47.848;9.000;2023-06-22T12:11:06;95723.16;;;30.36;62.77
56038;BME280;41907;47.848;9.000;2023-06-22T12:13:31;95729.00;;;30.38;62.91
56038;BME280;41907;47.848;9.000;2023-06-22T12:15:56;95720.28;;;30.27;62.33
56038;BME280;41907;47.848;9.000;2023-06-22T12:18:22;95707.03;;;30.22;63.22
56038;BME280;41907;47.848;9.000;2023-06-22T12:20:47;95712.88;;;30.24;61.35
56038;BME280;41907;47.848;9.000;2023-06-22T12:23:12;95705.84;;;30.23;63.80
56038;BME280;41907;47.848;9.000;2023-06-22T12:25:38;95702.44;;;30.19;61.37
56038;BME280;41907;47.848;9.000;2023-06-22T12:28:04;95710.44;;;30.13;60.92
56038;BME280;41907;47.848;9.000;2023-06-22T12:30:29;95719.22;;;30.08;62.56
56038;BME280;41907;47.848;9.000;2023-06-22T12:32:55;95705.13;;;30.06;62.90
56038;BME280;41907;47.848;9.000;2023-06-22T12:35:20;95705.31;;;29.99;63.34
56038;BME280;41907;47.848;9.000;2023-06-22T12:37:45;95702.22;;;29.97;64.43
56038;BME280;41907;47.848;9.000;2023-06-22T12:40:11;95691.22;;;29.97;66.62
56038;BME280;41907;47.848;9.000;2023-06-22T12:42:36;95686.94;;;29.96;66.23
56038;BME280;41907;47.848;9.000;2023-06-22T12:45:01;95679.81;;;29.99;64.29
56038;BME280;41907;47.848;9.000;2023-06-22T12:47:26;95690.88;;;29.95;69.38
56038;BME280;41907;47.848;9.000;2023-06-22T12:49:52;95689.59;;;30.00;67.31
56038;BME280;41907;47.848;9.000;2023-06-22T12:52:17;95691.59;;;30.12;65.72